Granite, Oklahoma
Current Conditions -  °F | °C
As of 10:55 PM on Saturday 22 Nov 2014 (Local Time) from KAXS Reporting Station
Scattered Clouds Scattered Clouds  
Wind Chill: 51°   Ceiling: Unl
Heat Index: 51°   Visibility: 10mi
Dew Point: 50°   Wind: 7mph
Humidity: 94%   Direction: 170°S
Pressure: 29.7"   Gusts: NA
Location:  34.96°N, 99.38°W
Report Text: KAXS 230455Z AUTO 17006KT 10SM SCT004 11/10 A2970 RMK AO2 T01080099
Loading
Personal Weather Stations






























Interactive Weather Map New forecast layout! Learn more

10-Day Weather Forecast

Advertisements
Track Severe Weather on mobile